createdAt,value
2018-09-15T00:00:07.054Z,1011.98
2018-09-15T00:01:07.115Z,1011.99
2018-09-15T00:02:07.175Z,1012.00
2018-09-15T00:03:07.234Z,1012.01
2018-09-15T00:04:07.293Z,1011.99
2018-09-15T00:05:07.354Z,1012.02
2018-09-15T00:06:07.416Z,1011.97
2018-09-15T00:07:07.473Z,1012.01
2018-09-15T00:08:07.533Z,1011.97
2018-09-15T00:09:07.593Z,1011.96
2018-09-15T00:10:07.653Z,1011.92
2018-09-15T00:11:07.713Z,1011.96
2018-09-15T00:12:07.772Z,1012.04
2018-09-15T00:13:07.831Z,1012.04
2018-09-15T00:14:07.891Z,1012.05
2018-09-15T00:15:07.951Z,1012.07
2018-09-15T00:16:08.010Z,1012.04
2018-09-15T00:17:08.072Z,1012.12
2018-09-15T00:18:08.130Z,1012.16
2018-09-15T00:19:08.190Z,1012.12
2018-09-15T00:20:08.248Z,1012.15
2018-09-15T00:21:08.309Z,1012.13
2018-09-15T00:22:08.390Z,1012.14
2018-09-15T00:23:08.491Z,1012.13
2018-09-15T00:24:08.487Z,1012.15
2018-09-15T00:25:08.549Z,1012.14
2018-09-15T00:26:08.607Z,1012.17
2018-09-15T00:27:08.667Z,1012.20
2018-09-15T00:28:08.743Z,1012.20
2018-09-15T00:29:08.785Z,1012.19
2018-09-15T00:30:08.845Z,1012.18
2018-09-15T00:31:08.907Z,1012.23
2018-09-15T00:32:08.964Z,1012.25
2018-09-15T00:33:09.027Z,1012.27
2018-09-15T00:34:09.084Z,1012.20
2018-09-15T00:35:09.144Z,1012.26
2018-09-15T00:36:09.202Z,1012.23
2018-09-15T00:37:09.263Z,1012.22
2018-09-15T00:38:09.321Z,1012.27
2018-09-15T00:39:09.381Z,1012.29
2018-09-15T00:40:09.441Z,1012.31
2018-09-15T00:41:09.503Z,1012.34
2018-09-15T00:42:09.559Z,1012.32
2018-09-15T00:43:09.618Z,1012.30
2018-09-15T00:44:09.828Z,1012.36
2018-09-15T00:45:09.753Z,1012.33
2018-09-15T00:46:09.796Z,1012.33
2018-09-15T00:47:09.856Z,1012.33
2018-09-15T00:48:09.915Z,1012.35
2018-09-15T00:49:09.976Z,1012.38
2018-09-15T00:50:10.035Z,1012.40
2018-09-15T00:51:10.098Z,1012.37
2018-09-15T00:52:10.154Z,1012.41
2018-09-15T00:53:10.213Z,1012.41
2018-09-15T00:54:10.273Z,1012.45
2018-09-15T00:55:10.334Z,1012.43
2018-09-15T00:56:10.396Z,1012.41
2018-09-15T00:57:10.452Z,1012.43
2018-09-15T00:58:10.511Z,1012.45
2018-09-15T00:59:10.571Z,1012.42
2018-09-15T01:00:10.628Z,1012.43
2018-09-15T01:01:10.689Z,1012.43
2018-09-15T01:02:10.749Z,1012.38
2018-09-15T01:03:10.810Z,1012.33
2018-09-15T01:04:10.871Z,1012.32
2018-09-15T01:05:10.928Z,1012.32
2018-09-15T01:06:10.988Z,1012.34
2018-09-15T01:07:11.047Z,1012.31
2018-09-15T01:08:11.107Z,1012.31
2018-09-15T01:09:11.166Z,1012.30
2018-09-15T01:10:11.228Z,1012.33
2018-09-15T01:11:11.285Z,1012.30
2018-09-15T01:12:11.346Z,1012.29
2018-09-15T01:13:11.405Z,1012.24
2018-09-15T01:14:11.584Z,1012.18
2018-09-15T01:15:11.526Z,1012.22
2018-09-15T01:16:11.582Z,1012.23
2018-09-15T01:17:11.643Z,1012.25
2018-09-15T01:18:11.703Z,1012.23
2018-09-15T01:19:11.762Z,1012.25
2018-09-15T01:20:11.905Z,1012.31
2018-09-15T01:21:11.881Z,1012.37
2018-09-15T01:22:11.944Z,1012.40
2018-09-15T01:23:12.002Z,1012.41
2018-09-15T01:24:12.062Z,1012.40
2018-09-15T01:25:12.120Z,1012.37
2018-09-15T01:26:12.182Z,1012.40
2018-09-15T01:27:12.239Z,1012.40
2018-09-15T01:28:12.298Z,1012.42
2018-09-15T01:29:12.358Z,1012.44
2018-09-15T01:30:12.418Z,1012.47
2018-09-15T01:31:12.478Z,1012.48
2018-09-15T01:32:12.536Z,1012.49
2018-09-15T01:33:12.596Z,1012.49
2018-09-15T01:34:12.656Z,1012.46
2018-09-15T01:35:12.719Z,1012.46
2018-09-15T01:36:12.775Z,1012.49
2018-09-15T01:37:12.835Z,1012.49
2018-09-15T01:38:12.894Z,1012.51
2018-09-15T01:39:12.954Z,1012.54
2018-09-15T01:40:13.013Z,1012.59
2018-09-15T01:41:13.073Z,1012.62
2018-09-15T01:42:13.133Z,1012.60
2018-09-15T01:43:13.193Z,1012.60
2018-09-15T01:44:13.254Z,1012.59
2018-09-15T01:45:13.313Z,1012.63
2018-09-15T01:46:13.371Z,1012.60
2018-09-15T01:47:13.432Z,1012.63
2018-09-15T01:48:13.491Z,1012.62
2018-09-15T01:49:13.551Z,1012.63
2018-09-15T01:50:13.610Z,1012.62
2018-09-15T01:51:13.670Z,1012.66
2018-09-15T01:52:13.733Z,1012.65
2018-09-15T01:53:13.790Z,1012.67
2018-09-15T01:54:13.849Z,1012.65
2018-09-15T01:55:13.909Z,1012.65
2018-09-15T01:56:13.970Z,1012.62
2018-09-15T01:57:14.029Z,1012.66
2018-09-15T01:58:14.088Z,1012.64
2018-09-15T01:59:14.148Z,1012.67
2018-09-15T02:00:14.224Z,1012.68
2018-09-15T02:01:14.266Z,1012.67
2018-09-15T02:02:14.344Z,1012.69
2018-09-15T02:03:14.385Z,1012.70
2018-09-15T02:04:14.445Z,1012.73
2018-09-15T02:05:14.504Z,1012.71
2018-09-15T02:06:14.565Z,1012.72
2018-09-15T02:07:14.626Z,1012.70
2018-09-15T02:08:14.684Z,1012.72
2018-09-15T02:09:14.744Z,1012.69
2018-09-15T02:10:15.053Z,1012.70
2018-09-15T02:11:14.863Z,1012.71
2018-09-15T02:12:14.922Z,1012.72
2018-09-15T02:13:14.982Z,1012.75
2018-09-15T02:14:15.045Z,1012.73
2018-09-15T02:15:15.102Z,1012.76
2018-09-15T02:16:15.810Z,1012.75
2018-09-15T02:17:15.220Z,1012.76
2018-09-15T02:18:15.281Z,1012.73
2018-09-15T02:19:15.340Z,1012.70
2018-09-15T02:20:15.399Z,1012.73
2018-09-15T02:21:15.459Z,1012.75
2018-09-15T02:22:15.999Z,1012.76
2018-09-15T02:23:16.079Z,1012.74
2018-09-15T02:24:16.055Z,1012.70
2018-09-15T02:25:15.698Z,1012.71
2018-09-15T02:26:15.759Z,1012.67
2018-09-15T02:27:15.818Z,1012.70
2018-09-15T02:28:15.877Z,1012.73
2018-09-15T02:29:15.941Z,1012.74
2018-09-15T02:30:15.998Z,1012.73
2018-09-15T02:31:16.062Z,1012.74
2018-09-15T02:32:16.123Z,1012.69
2018-09-15T02:33:16.176Z,1012.72
2018-09-15T02:34:16.235Z,1012.67
2018-09-15T02:35:16.301Z,1012.62
2018-09-15T02:36:16.360Z,1012.63
2018-09-15T02:37:16.415Z,1012.64
2018-09-15T02:38:16.475Z,1012.67
2018-09-15T02:39:16.535Z,1012.64
2018-09-15T02:40:16.594Z,1012.69
2018-09-15T02:41:16.654Z,1012.70
2018-09-15T02:42:16.717Z,1012.70
2018-09-15T02:43:16.774Z,1012.74
2018-09-15T02:44:16.845Z,1012.75
2018-09-15T02:45:16.893Z,1012.66
2018-09-15T02:46:16.953Z,1012.68
2018-09-15T02:47:17.013Z,1012.64
2018-09-15T02:48:17.072Z,1012.63
2018-09-15T02:49:17.133Z,1012.67
2018-09-15T02:50:17.193Z,1012.67
2018-09-15T02:51:17.255Z,1012.73
2018-09-15T02:52:17.311Z,1012.70
2018-09-15T02:53:17.371Z,1012.69
2018-09-15T02:54:17.431Z,1012.65
2018-09-15T02:55:17.496Z,1012.65
2018-09-15T02:56:17.551Z,1012.65
2018-09-15T02:57:17.612Z,1012.61
2018-09-15T02:58:17.672Z,1012.56
2018-09-15T02:59:17.732Z,1012.58
2018-09-15T03:00:17.792Z,1012.56
2018-09-15T03:01:17.850Z,1012.61
2018-09-15T03:02:17.912Z,1012.69
2018-09-15T03:03:17.970Z,1012.68
2018-09-15T03:04:18.028Z,1012.72
2018-09-15T03:05:18.090Z,1012.68
2018-09-15T03:06:18.149Z,1012.67
2018-09-15T03:07:18.220Z,1012.68
2018-09-15T03:08:18.268Z,1012.70
2018-09-15T03:09:18.329Z,1012.72
2018-09-15T03:10:18.388Z,1012.75
2018-09-15T03:11:18.450Z,1012.73
2018-09-15T03:12:18.510Z,1012.67
2018-09-15T03:13:18.568Z,1012.70
2018-09-15T03:14:18.628Z,1012.71
2018-09-15T03:15:18.692Z,1012.70
2018-09-15T03:16:18.746Z,1012.73
2018-09-15T03:17:18.807Z,1012.72
2018-09-15T03:18:18.868Z,1012.71
2018-09-15T03:19:18.928Z,1012.75
2018-09-15T03:20:18.985Z,1012.77
2018-09-15T03:21:19.047Z,1012.74
2018-09-15T03:22:19.105Z,1012.75
2018-09-15T03:23:19.166Z,1012.72
2018-09-15T03:24:19.224Z,1012.78
2018-09-15T03:25:19.289Z,1012.78
2018-09-15T03:26:19.344Z,1012.74
2018-09-15T03:27:19.411Z,1012.75
2018-09-15T03:28:19.463Z,1012.77
2018-09-15T03:29:19.523Z,1012.79
2018-09-15T03:30:19.583Z,1012.78
2018-09-15T03:31:19.643Z,1012.87
2018-09-15T03:32:19.709Z,1012.83
2018-09-15T03:33:19.761Z,1012.84
2018-09-15T03:34:19.822Z,1012.89
2018-09-15T03:35:19.881Z,1012.83
2018-09-15T03:36:19.942Z,1012.93
2018-09-15T03:37:20.000Z,1012.84
2018-09-15T03:38:20.070Z,1012.84
2018-09-15T03:39:20.121Z,1012.85
2018-09-15T03:40:20.179Z,1012.85
2018-09-15T03:41:20.302Z,1012.83
2018-09-15T03:42:20.302Z,1012.79
2018-09-15T03:43:20.360Z,1012.83
2018-09-15T03:44:20.418Z,1012.86
2018-09-15T03:45:20.477Z,1012.87
2018-09-15T03:46:20.541Z,1012.82
2018-09-15T03:47:20.598Z,1012.88
2018-09-15T03:48:20.657Z,1012.78
2018-09-15T03:49:20.716Z,1012.80
2018-09-15T03:50:20.780Z,1012.81
2018-09-15T03:51:20.837Z,1012.75
2018-09-15T03:52:20.899Z,1012.78
2018-09-15T03:53:20.955Z,1012.80
2018-09-15T03:54:21.015Z,1012.77
2018-09-15T03:55:21.077Z,1012.79
2018-09-15T03:56:21.136Z,1012.79
2018-09-15T03:57:21.197Z,1012.80
2018-09-15T03:58:21.254Z,1012.81
2018-09-15T03:59:21.313Z,1012.84
2018-09-15T04:00:21.372Z,1012.77
2018-09-15T04:01:21.433Z,1012.76
2018-09-15T04:02:21.493Z,1012.81
2018-09-15T04:03:21.554Z,1012.84
2018-09-15T04:04:21.611Z,1012.86
2018-09-15T04:05:21.670Z,1012.82
2018-09-15T04:06:21.730Z,1012.81
2018-09-15T04:07:21.790Z,1012.85
2018-09-15T04:08:21.848Z,1012.87
2018-09-15T04:09:21.910Z,1012.88
2018-09-15T04:10:21.971Z,1012.90
2018-09-15T04:11:22.028Z,1012.95
2018-09-15T04:12:22.088Z,1012.95
2018-09-15T04:13:22.147Z,1012.95
2018-09-15T04:14:22.207Z,1012.95
2018-09-15T04:15:22.268Z,1012.92
2018-09-15T04:16:22.326Z,1012.93
2018-09-15T04:17:22.387Z,1012.97
2018-09-15T04:18:22.445Z,1012.96
2018-09-15T04:19:22.505Z,1013.00
2018-09-15T04:20:22.564Z,1013.02
2018-09-15T04:21:22.878Z,1013.05
2018-09-15T04:22:22.684Z,1013.03
2018-09-15T04:23:22.747Z,1013.07
2018-09-15T04:24:22.802Z,1013.03
2018-09-15T04:25:22.864Z,1013.04
2018-09-15T04:26:22.922Z,1013.10
2018-09-15T04:27:22.981Z,1013.14
2018-09-15T04:28:23.057Z,1013.14
2018-09-15T04:29:23.101Z,1013.16
2018-09-15T04:30:23.161Z,1013.11
2018-09-15T04:31:23.221Z,1013.18
2018-09-15T04:32:23.278Z,1013.19
2018-09-15T04:33:23.338Z,1013.21
2018-09-15T04:34:23.397Z,1013.19
2018-09-15T04:35:23.457Z,1013.20
2018-09-15T04:36:23.516Z,1013.23
2018-09-15T04:37:23.580Z,1013.21
2018-09-15T04:38:23.636Z,1013.23
2018-09-15T04:39:23.696Z,1013.21
2018-09-15T04:40:23.756Z,1013.19
2018-09-15T04:41:23.814Z,1013.17
2018-09-15T04:42:23.875Z,1013.21
2018-09-15T04:43:23.933Z,1013.22
2018-09-15T04:44:23.992Z,1013.22
2018-09-15T04:45:24.052Z,1013.24
2018-09-15T04:46:24.113Z,1013.20
2018-09-15T04:47:24.171Z,1013.31
2018-09-15T04:48:24.232Z,1013.22
2018-09-15T04:49:24.291Z,1013.25
2018-09-15T04:50:24.350Z,1013.29
2018-09-15T04:51:24.411Z,1013.29
2018-09-15T04:52:24.468Z,1013.29
2018-09-15T04:53:24.529Z,1013.28
2018-09-15T04:54:24.589Z,1013.26
2018-09-15T04:55:24.648Z,1013.26
2018-09-15T04:56:24.707Z,1013.27
2018-09-15T04:57:24.767Z,1013.31
2018-09-15T04:58:24.828Z,1013.31
2018-09-15T04:59:24.887Z,1013.34
2018-09-15T05:00:24.945Z,1013.34
2018-09-15T05:01:25.007Z,1013.36
2018-09-15T05:02:25.065Z,1013.40
2018-09-15T05:03:25.125Z,1013.38
2018-09-15T05:04:25.183Z,1013.38
2018-09-15T05:05:25.243Z,1013.45
2018-09-15T05:06:25.349Z,1013.49
2018-09-15T05:07:25.362Z,1013.46
2018-09-15T05:08:25.423Z,1013.49
2018-09-15T05:09:25.483Z,1013.47
2018-09-15T05:10:25.542Z,1013.51
2018-09-15T05:11:25.605Z,1013.54
2018-09-15T05:12:25.678Z,1013.53
2018-09-15T05:13:25.721Z,1013.56
2018-09-15T05:14:25.786Z,1013.57
2018-09-15T05:15:25.841Z,1013.58
2018-09-15T05:16:25.902Z,1013.57
2018-09-15T05:17:25.960Z,1013.55
2018-09-15T05:18:26.018Z,1013.60
2018-09-15T05:19:26.081Z,1013.59
2018-09-15T05:20:26.138Z,1013.62
2018-09-15T05:21:26.198Z,1013.64
2018-09-15T05:22:26.257Z,1013.62
2018-09-15T05:23:26.318Z,1013.65
2018-09-15T05:24:26.376Z,1013.60
2018-09-15T05:25:26.436Z,1013.61
2018-09-15T05:26:26.496Z,1013.59
2018-09-15T05:27:26.556Z,1013.58
2018-09-15T05:28:26.614Z,1013.58
2018-09-15T05:29:26.674Z,1013.58
2018-09-15T05:30:26.733Z,1013.64
2018-09-15T05:31:26.803Z,1013.64
2018-09-15T05:32:26.853Z,1013.63
2018-09-15T05:33:26.913Z,1013.69
2018-09-15T05:34:26.973Z,1013.67
2018-09-15T05:35:27.032Z,1013.68
2018-09-15T05:36:27.091Z,1013.75
2018-09-15T05:37:27.150Z,1013.81
2018-09-15T05:38:27.214Z,1013.79
2018-09-15T05:39:27.269Z,1013.82
2018-09-15T05:40:27.329Z,1013.76
2018-09-15T05:41:27.388Z,1013.81
2018-09-15T05:42:27.448Z,1013.86
2018-09-15T05:43:27.508Z,1013.85
2018-09-15T05:44:27.566Z,1013.90
2018-09-15T05:45:27.628Z,1013.85
2018-09-15T05:46:27.685Z,1013.92
2018-09-15T05:47:27.744Z,1013.86
2018-09-15T05:48:27.804Z,1013.92
2018-09-15T05:49:27.865Z,1013.91
2018-09-15T05:50:27.923Z,1013.88
2018-09-15T05:51:27.984Z,1013.95
2018-09-15T05:52:28.041Z,1013.96
2018-09-15T05:53:28.124Z,1013.95
2018-09-15T05:54:28.161Z,1013.98
2018-09-15T05:55:28.220Z,1013.93
2018-09-15T05:56:28.278Z,1014.02
2018-09-15T05:57:28.339Z,1013.99
2018-09-15T05:58:28.397Z,1013.99
2018-09-15T05:59:28.457Z,1014.01
2018-09-15T06:00:28.547Z,1014.01
2018-09-15T06:01:28.588Z,1014.06
2018-09-15T06:02:28.640Z,1014.03
2018-09-15T06:03:28.694Z,1014.05
2018-09-15T06:04:28.752Z,1013.99
2018-09-15T06:05:28.812Z,1014.02
2018-09-15T06:06:28.871Z,1014.01
2018-09-15T06:07:28.953Z,1014.05
2018-09-15T06:08:28.989Z,1014.04
2018-09-15T06:09:29.051Z,1014.05
2018-09-15T06:10:29.417Z,1014.04
2018-09-15T06:11:29.174Z,1014.10
2018-09-15T06:12:29.226Z,1014.07
2018-09-15T06:13:29.287Z,1014.14
2018-09-15T06:14:29.345Z,1014.12
2018-09-15T06:15:29.405Z,1014.12
2018-09-15T06:16:29.463Z,1014.15
2018-09-15T06:17:29.522Z,1014.16
2018-09-15T06:18:29.582Z,1014.18
2018-09-15T06:19:29.644Z,1014.21
2018-09-15T06:20:29.701Z,1014.24
2018-09-15T06:21:29.761Z,1014.24
2018-09-15T06:22:29.859Z,1014.28
2018-09-15T06:23:29.878Z,1014.29
2018-09-15T06:24:29.939Z,1014.28
2018-09-15T06:25:29.997Z,1014.28
2018-09-15T06:26:30.057Z,1014.29
2018-09-15T06:27:30.117Z,1014.28
2018-09-15T06:28:30.175Z,1014.25
2018-09-15T06:29:30.235Z,1014.29
2018-09-15T06:30:30.294Z,1014.31
2018-09-15T06:31:30.354Z,1014.29
2018-09-15T06:32:30.413Z,1014.31
2018-09-15T06:33:30.477Z,1014.32
2018-09-15T06:34:30.537Z,1014.28
2018-09-15T06:35:30.592Z,1014.32
2018-09-15T06:36:30.651Z,1014.26
2018-09-15T06:37:30.710Z,1014.27
2018-09-15T06:38:30.770Z,1014.29
2018-09-15T06:39:30.873Z,1014.32
2018-09-15T06:40:30.888Z,1014.32
2018-09-15T06:41:30.948Z,1014.33
2018-09-15T06:42:31.008Z,1014.29
2018-09-15T06:43:31.068Z,1014.26
2018-09-15T06:44:31.126Z,1014.25
2018-09-15T06:45:31.228Z,1014.25
2018-09-15T06:46:31.249Z,1014.29
2018-09-15T06:47:31.307Z,1014.26
2018-09-15T06:48:31.366Z,1014.26
2018-09-15T06:49:31.428Z,1014.27
2018-09-15T06:50:31.485Z,1014.26
2018-09-15T06:51:31.555Z,1014.26
2018-09-15T06:52:31.605Z,1014.27
2018-09-15T06:53:31.664Z,1014.28
2018-09-15T06:54:31.728Z,1014.29
2018-09-15T06:55:31.784Z,1014.31
2018-09-15T06:56:31.843Z,1014.33
2018-09-15T06:57:31.904Z,1014.31
2018-09-15T06:58:31.963Z,1014.36
2018-09-15T06:59:32.025Z,1014.34
2018-09-15T07:00:32.083Z,1014.33
2018-09-15T07:01:32.143Z,1014.33
2018-09-15T07:02:32.207Z,1014.32
2018-09-15T07:03:32.264Z,1014.34
2018-09-15T07:04:32.324Z,1014.37
2018-09-15T07:05:32.383Z,1014.33
2018-09-15T07:06:32.445Z,1014.38
2018-09-15T07:07:32.505Z,1014.36
2018-09-15T07:08:32.563Z,1014.41
2018-09-15T07:09:32.628Z,1014.39
2018-09-15T07:10:32.685Z,1014.39
2018-09-15T07:11:32.746Z,1014.38
2018-09-15T07:12:32.805Z,1014.37
2018-09-15T07:13:32.864Z,1014.39
2018-09-15T07:14:32.926Z,1014.36
2018-09-15T07:15:32.986Z,1014.41
2018-09-15T07:16:33.051Z,1014.42
2018-09-15T07:17:33.107Z,1014.45
2018-09-15T07:18:33.320Z,1014.45
2018-09-15T07:19:33.228Z,1014.49
2018-09-15T07:20:33.289Z,1014.47
2018-09-15T07:21:33.348Z,1014.51
2018-09-15T07:22:33.408Z,1014.48
2018-09-15T07:23:33.469Z,1014.52
2018-09-15T07:24:33.529Z,1014.55
2018-09-15T07:25:33.590Z,1014.48
2018-09-15T07:26:33.651Z,1014.51
2018-09-15T07:27:33.713Z,1014.56
2018-09-15T07:28:33.772Z,1014.54
2018-09-15T07:29:33.837Z,1014.54
2018-09-15T07:30:33.901Z,1014.52
2018-09-15T07:31:34.552Z,1014.52
2018-09-15T07:32:34.015Z,1014.54
2018-09-15T07:33:34.077Z,1014.53
2018-09-15T07:34:34.138Z,1014.53
2018-09-15T07:35:34.206Z,1014.52
2018-09-15T07:36:34.259Z,1014.55
2018-09-15T07:37:34.384Z,1014.55
2018-09-15T07:38:34.381Z,1014.53
2018-09-15T07:39:34.442Z,1014.55
2018-09-15T07:40:34.503Z,1014.60
2018-09-15T07:41:34.564Z,1014.61
2018-09-15T07:42:34.625Z,1014.58
2018-09-15T07:43:34.687Z,1014.56
2018-09-15T07:44:34.793Z,1014.61
2018-09-15T07:45:34.808Z,1014.59
2018-09-15T07:46:34.869Z,1014.59
2018-09-15T07:47:34.930Z,1014.60
2018-09-15T07:48:34.991Z,1014.61
2018-09-15T07:49:35.053Z,1014.58
2018-09-15T07:50:35.113Z,1014.63
2018-09-15T07:51:35.214Z,1014.63
2018-09-15T07:52:35.238Z,1014.69
2018-09-15T07:53:35.299Z,1014.68
2018-09-15T07:54:35.358Z,1014.64
2018-09-15T07:55:35.434Z,1014.66
2018-09-15T07:56:35.479Z,1014.64
2018-09-15T07:57:35.567Z,1014.64
2018-09-15T07:58:35.602Z,1014.64
2018-09-15T07:59:35.663Z,1014.66
2018-09-15T08:00:35.725Z,1014.67
2018-09-15T08:01:35.785Z,1014.65
2018-09-15T08:02:35.846Z,1014.64
2018-09-15T08:03:35.907Z,1014.64
2018-09-15T08:04:35.968Z,1014.63
2018-09-15T08:05:36.030Z,1014.63
2018-09-15T08:06:36.090Z,1014.60
2018-09-15T08:07:36.153Z,1014.58
2018-09-15T08:08:36.214Z,1014.56
2018-09-15T08:09:36.274Z,1014.55
2018-09-15T08:10:36.336Z,1014.59
2018-09-15T08:11:36.398Z,1014.61
2018-09-15T08:12:36.458Z,1014.59
2018-09-15T08:13:36.520Z,1014.61
2018-09-15T08:14:36.581Z,1014.61
2018-09-15T08:15:36.966Z,1014.61
2018-09-15T08:16:36.704Z,1014.64
2018-09-15T08:17:36.765Z,1014.62
2018-09-15T08:18:36.826Z,1014.65
2018-09-15T08:19:36.895Z,1014.60
2018-09-15T08:20:36.986Z,1014.58
2018-09-15T08:21:37.011Z,1014.57
2018-09-15T08:22:37.072Z,1014.60
2018-09-15T08:23:37.134Z,1014.62
2018-09-15T08:24:37.195Z,1014.47
2018-09-15T08:25:37.256Z,1014.58
2018-09-15T08:26:37.322Z,1014.58
2018-09-15T08:27:37.408Z,1014.54
2018-09-15T08:28:38.244Z,1014.61
2018-09-15T08:29:37.503Z,1014.65
2018-09-15T08:30:37.565Z,1014.64
2018-09-15T08:31:37.628Z,1014.69
2018-09-15T08:32:37.687Z,1014.69
2018-09-15T08:33:37.749Z,1014.65
2018-09-15T08:34:37.812Z,1014.68
2018-09-15T08:35:37.874Z,1014.71
2018-09-15T08:36:37.934Z,1014.74
2018-09-15T08:37:38.047Z,1014.68
2018-09-15T08:38:38.371Z,1014.65
2018-09-15T08:39:38.121Z,1014.68
2018-09-15T08:40:38.183Z,1014.65
2018-09-15T08:41:38.244Z,1014.65
2018-09-15T08:42:38.307Z,1014.62
2018-09-15T08:43:38.369Z,1014.61
2018-09-15T08:44:38.431Z,1014.62
2018-09-15T08:45:38.491Z,1014.66
2018-09-15T08:46:38.556Z,1014.67
2018-09-15T08:47:38.616Z,1014.75
2018-09-15T08:48:38.677Z,1014.74
2018-09-15T08:49:38.740Z,1014.75
2018-09-15T08:50:38.802Z,1014.78
2018-09-15T08:51:38.864Z,1014.84
2018-09-15T08:52:38.926Z,1014.84
2018-09-15T08:53:38.994Z,1014.87
2018-09-15T08:54:39.051Z,1014.88
2018-09-15T08:55:39.114Z,1014.93
2018-09-15T08:56:39.176Z,1014.92
2018-09-15T08:57:39.238Z,1015.00
2018-09-15T08:58:39.300Z,1014.95
2018-09-15T08:59:39.364Z,1014.95
2018-09-15T09:00:39.428Z,1014.93
2018-09-15T09:01:39.487Z,1014.95
2018-09-15T09:02:39.556Z,1014.88
2018-09-15T09:03:39.694Z,1014.70
2018-09-15T09:04:39.677Z,1014.84
2018-09-15T09:05:39.739Z,1014.89
2018-09-15T09:06:39.805Z,1014.93
2018-09-15T09:07:39.865Z,1014.97
2018-09-15T09:08:39.928Z,1014.94
2018-09-15T09:09:39.991Z,1014.94
2018-09-15T09:10:40.057Z,1014.87
2018-09-15T09:11:40.118Z,1014.84
2018-09-15T09:12:40.181Z,1014.88
2018-09-15T09:13:40.244Z,1014.82
2018-09-15T09:14:40.308Z,1014.90
2018-09-15T09:15:40.371Z,1014.86
2018-09-15T09:16:40.434Z,1014.80
2018-09-15T09:17:40.497Z,1014.81
2018-09-15T09:25:50.763Z,1014.83
2018-09-15T09:26:50.881Z,1014.83
2018-09-15T09:27:51.047Z,1014.87
2018-09-15T09:28:50.908Z,1014.87
2018-09-15T09:29:50.971Z,1014.89
2018-09-15T09:30:51.036Z,1014.92
2018-09-15T09:31:51.099Z,1014.93
2018-09-15T09:32:51.164Z,1014.86
2018-09-15T09:33:51.228Z,1014.95
2018-09-15T09:34:51.290Z,1014.91
2018-09-15T09:35:51.355Z,1014.86
2018-09-15T09:36:51.420Z,1014.90
2018-09-15T09:37:51.482Z,1014.89
2018-09-15T09:38:51.546Z,1014.90
2018-09-15T09:39:51.612Z,1014.85
2018-09-15T09:40:51.677Z,1014.85
2018-09-15T09:41:51.741Z,1014.91
2018-09-15T09:42:51.807Z,1014.88
2018-09-15T09:43:51.867Z,1014.92
2018-09-15T09:44:51.932Z,1014.97
2018-09-15T09:45:52.001Z,1015.03
2018-09-15T09:46:52.060Z,1014.94
2018-09-15T09:47:52.186Z,1014.93
2018-09-15T09:48:52.189Z,1014.96
2018-09-15T09:49:52.250Z,1015.01
2018-09-15T09:50:52.315Z,1014.97
2018-09-15T09:51:52.380Z,1014.94
2018-09-15T09:52:52.444Z,1014.92
2018-09-15T09:53:52.509Z,1014.90
2018-09-15T09:54:52.573Z,1014.84
2018-09-15T09:55:52.636Z,1014.85
2018-09-15T09:56:52.706Z,1014.89
2018-09-15T09:57:52.768Z,1014.87
2018-09-15T09:58:52.830Z,1014.92
2018-09-15T09:59:52.899Z,1014.88
2018-09-15T10:00:53.113Z,1014.89
2018-09-15T10:01:53.699Z,1014.88
2018-09-15T10:02:53.086Z,1014.82
2018-09-15T10:03:53.152Z,1014.80
2018-09-15T10:04:53.215Z,1014.76
2018-09-15T10:05:53.279Z,1014.80
2018-09-15T10:06:53.375Z,1014.75
2018-09-15T10:07:53.408Z,1014.83
2018-09-15T10:08:53.473Z,1014.91
2018-09-15T10:09:53.536Z,1014.96
2018-09-15T10:10:53.601Z,1014.97
2018-09-15T10:11:53.667Z,1014.89
2018-09-15T10:12:53.731Z,1014.93
2018-09-15T10:13:53.795Z,1014.89
2018-09-15T10:14:53.860Z,1014.89
2018-09-15T10:15:53.957Z,1014.90
2018-09-15T10:16:53.990Z,1014.93
2018-09-15T10:17:54.056Z,1014.91
2018-09-15T10:18:54.119Z,1014.97
2018-09-15T10:19:54.183Z,1014.94
2018-09-15T10:20:54.249Z,1014.93
2018-09-15T10:21:54.319Z,1014.89
2018-09-15T10:22:54.377Z,1014.81
2018-09-15T10:23:54.442Z,1014.80
2018-09-15T10:24:54.508Z,1014.75
2018-09-15T10:25:54.571Z,1014.79
2018-09-15T10:26:54.637Z,1014.75
2018-09-15T10:27:54.702Z,1014.79
2018-09-15T10:28:54.766Z,1014.87
2018-09-15T10:29:54.830Z,1014.98
2018-09-15T10:30:54.894Z,1014.99
2018-09-15T10:31:54.965Z,1014.97
2018-09-15T10:32:55.025Z,1014.95
2018-09-15T10:33:55.087Z,1014.89
2018-09-15T10:34:55.154Z,1014.84
2018-09-15T10:35:55.218Z,1014.82
2018-09-15T10:36:55.283Z,1014.83
2018-09-15T10:37:55.347Z,1014.88
2018-09-15T10:38:55.413Z,1014.81
2018-09-15T10:39:55.478Z,1014.74
2018-09-15T10:40:55.542Z,1014.75
2018-09-15T10:41:55.607Z,1014.73
2018-09-15T10:42:55.674Z,1014.77
2018-09-15T10:43:55.738Z,1014.74
2018-09-15T10:44:55.803Z,1014.74
2018-09-15T10:45:55.900Z,1014.72
2018-09-15T10:46:55.932Z,1014.68
2018-09-15T10:47:56.011Z,1014.67
2018-09-15T10:48:56.062Z,1014.65
2018-09-15T10:49:56.126Z,1014.69
2018-09-15T10:50:56.191Z,1014.70
2018-09-15T10:51:56.257Z,1014.76
2018-09-15T10:52:56.321Z,1014.80
2018-09-15T10:53:56.384Z,1014.80
2018-09-15T10:54:56.449Z,1014.85
2018-09-15T10:55:56.514Z,1014.91
2018-09-15T10:56:56.579Z,1014.99
2018-09-15T10:57:56.644Z,1015.03
2018-09-15T10:58:56.721Z,1015.00
2018-09-15T10:59:56.789Z,1014.95
2018-09-15T11:00:56.836Z,1014.92
2018-09-15T11:01:56.904Z,1014.94
2018-09-15T11:02:56.965Z,1014.94
2018-09-15T11:03:57.029Z,1015.04
2018-09-15T11:04:57.093Z,1015.05
2018-09-15T11:05:57.168Z,1015.33
2018-09-15T11:06:57.221Z,1015.18
2018-09-15T11:07:57.288Z,1015.71
2018-09-15T11:08:57.351Z,1015.11
2018-09-15T11:09:57.415Z,1015.00
2018-09-15T11:10:57.480Z,1014.97
2018-09-15T11:11:57.546Z,1014.93
2018-09-15T11:12:57.611Z,1014.96
2018-09-15T11:13:57.676Z,1014.93
2018-09-15T11:14:57.741Z,1014.91
2018-09-15T11:15:57.806Z,1014.87
2018-09-15T11:16:57.871Z,1014.83
2018-09-15T11:17:57.935Z,1014.78
2018-09-15T11:18:58.373Z,1014.82
2018-09-15T11:19:58.373Z,1014.87
2018-09-15T11:20:58.131Z,1014.82
2018-09-15T11:21:58.202Z,1014.84
2018-09-15T11:22:58.260Z,1014.83
2018-09-15T11:23:58.325Z,1014.88
2018-09-15T11:24:58.711Z,1014.94
2018-09-15T11:25:58.453Z,1014.94
2018-09-15T11:26:58.518Z,1015.96
2018-09-15T11:27:58.584Z,1015.11
2018-09-15T11:28:58.651Z,1015.01
2018-09-15T11:29:58.713Z,1014.99
2018-09-15T11:30:58.777Z,1014.95
2018-09-15T11:31:58.842Z,1015.02
2018-09-15T11:32:58.907Z,1014.99
2018-09-15T11:33:59.479Z,1015.00
2018-09-15T11:34:59.037Z,1015.02
2018-09-15T11:35:59.102Z,1014.99
2018-09-15T11:36:59.417Z,1015.08
2018-09-15T11:37:59.231Z,1016.47
2018-09-15T11:38:59.297Z,1016.48
2018-09-15T11:39:59.365Z,1016.38
2018-09-15T11:40:59.442Z,1016.31
2018-09-15T11:41:59.493Z,1016.41
2018-09-15T11:42:59.558Z,1016.41
2018-09-15T11:43:59.624Z,1016.34
2018-09-15T11:44:59.691Z,1016.37
2018-09-15T11:45:59.756Z,1015.02
2018-09-15T11:46:59.823Z,1014.94
2018-09-15T11:47:59.929Z,1014.89
2018-09-15T11:48:59.957Z,1014.91
2018-09-15T11:50:00.039Z,1014.92
2018-09-15T11:51:00.091Z,1015.22
2018-09-15T11:52:00.159Z,1015.09
2018-09-15T11:53:00.225Z,1014.97
2018-09-15T11:54:00.412Z,1016.68
2018-09-15T11:55:00.368Z,1016.72
2018-09-15T11:56:00.428Z,1016.75
2018-09-15T11:57:00.492Z,1016.93
2018-09-15T11:58:00.562Z,1017.06
2018-09-15T11:59:00.628Z,1017.18
2018-09-15T12:00:00.738Z,1017.32
2018-09-15T12:01:00.764Z,1015.23
2018-09-15T12:02:00.859Z,1015.11
2018-09-15T12:03:00.897Z,1014.98
2018-09-15T12:04:00.965Z,1014.98
2018-09-15T12:05:01.035Z,1014.84
2018-09-15T12:06:01.103Z,1014.87
2018-09-15T12:07:01.169Z,1014.87
2018-09-15T12:08:01.236Z,1014.95
2018-09-15T12:09:01.304Z,1014.90
2018-09-15T12:10:01.375Z,1014.81
2018-09-15T12:11:01.442Z,1014.82
2018-09-15T12:12:01.513Z,1014.91
2018-09-15T12:13:01.573Z,1014.87